sensor_id;sensor_type;location;lat;lon;timestamp;P1;durP1;ratioP1;P2;durP2;ratioP2
67164;SDS011;54093;50.014;19.984;2023-03-01T00:06:54;15.82;;;9.27;;
67164;SDS011;54093;50.014;19.984;2023-03-01T00:16:16;20.15;;;9.65;;
67164;SDS011;54093;50.014;19.984;2023-03-01T00:25:42;14.52;;;8.68;;
67164;SDS011;54093;50.014;19.984;2023-03-01T00:35:03;15.13;;;8.65;;
67164;SDS011;54093;50.014;19.984;2023-03-01T00:44:26;16.65;;;9.60;;
67164;SDS011;54093;50.014;19.984;2023-03-01T00:53:49;32.20;;;13.57;;
67164;SDS011;54093;50.014;19.984;2023-03-01T01:03:11;17.73;;;10.13;;
67164;SDS011;54093;50.014;19.984;2023-03-01T01:12:32;16.38;;;11.30;;
67164;SDS011;54093;50.014;19.984;2023-03-01T01:21:53;19.35;;;11.13;;
67164;SDS011;54093;50.014;19.984;2023-03-01T01:31:14;25.55;;;11.93;;
67164;SDS011;54093;50.014;19.984;2023-03-01T01:40:42;29.85;;;13.93;;
67164;SDS011;54093;50.014;19.984;2023-03-01T01:50:04;30.15;;;13.40;;
67164;SDS011;54093;50.014;19.984;2023-03-01T01:59:26;27.10;;;12.82;;
67164;SDS011;54093;50.014;19.984;2023-03-01T02:08:51;26.90;;;11.73;;
67164;SDS011;54093;50.014;19.984;2023-03-01T02:18:14;24.67;;;12.75;;
67164;SDS011;54093;50.014;19.984;2023-03-01T02:27:50;24.90;;;14.33;;
67164;SDS011;54093;50.014;19.984;2023-03-01T02:37:20;35.53;;;15.73;;
67164;SDS011;54093;50.014;19.984;2023-03-01T02:46:49;22.38;;;10.95;;
67164;SDS011;54093;50.014;19.984;2023-03-01T02:56:15;36.53;;;17.73;;
67164;SDS011;54093;50.014;19.984;2023-03-01T03:05:37;32.03;;;11.50;;
67164;SDS011;54093;50.014;19.984;2023-03-01T03:14:58;13.65;;;8.10;;
67164;SDS011;54093;50.014;19.984;2023-03-01T03:24:19;28.42;;;14.55;;
67164;SDS011;54093;50.014;19.984;2023-03-01T03:33:40;19.48;;;12.75;;
67164;SDS011;54093;50.014;19.984;2023-03-01T03:43:01;20.00;;;9.95;;
67164;SDS011;54093;50.014;19.984;2023-03-01T03:52:24;17.88;;;9.25;;
67164;SDS011;54093;50.014;19.984;2023-03-01T04:01:45;25.02;;;11.63;;
67164;SDS011;54093;50.014;19.984;2023-03-01T04:11:06;31.55;;;10.45;;
67164;SDS011;54093;50.014;19.984;2023-03-01T04:20:46;22.08;;;11.40;;
67164;SDS011;54093;50.014;19.984;2023-03-01T04:30:07;22.45;;;13.32;;
67164;SDS011;54093;50.014;19.984;2023-03-01T04:39:29;19.95;;;9.02;;
67164;SDS011;54093;50.014;19.984;2023-03-01T04:48:50;17.27;;;10.55;;
67164;SDS011;54093;50.014;19.984;2023-03-01T04:58:11;25.27;;;13.40;;
67164;SDS011;54093;50.014;19.984;2023-03-01T05:07:32;23.73;;;11.07;;
67164;SDS011;54093;50.014;19.984;2023-03-01T05:16:53;28.00;;;15.60;;
67164;SDS011;54093;50.014;19.984;2023-03-01T05:26:15;19.08;;;11.25;;
67164;SDS011;54093;50.014;19.984;2023-03-01T05:35:38;23.83;;;13.55;;
67164;SDS011;54093;50.014;19.984;2023-03-01T05:44:59;24.27;;;14.85;;
67164;SDS011;54093;50.014;19.984;2023-03-01T05:54:21;31.08;;;15.30;;
67164;SDS011;54093;50.014;19.984;2023-03-01T06:03:42;16.63;;;10.38;;
67164;SDS011;54093;50.014;19.984;2023-03-01T06:13:03;18.67;;;9.77;;
67164;SDS011;54093;50.014;19.984;2023-03-01T06:22:24;21.10;;;9.55;;
67164;SDS011;54093;50.014;19.984;2023-03-01T06:31:45;18.35;;;10.95;;
67164;SDS011;54093;50.014;19.984;2023-03-01T06:41:06;27.45;;;14.43;;
67164;SDS011;54093;50.014;19.984;2023-03-01T06:50:27;28.10;;;13.57;;
67164;SDS011;54093;50.014;19.984;2023-03-01T06:59:48;33.63;;;15.05;;
67164;SDS011;54093;50.014;19.984;2023-03-01T07:09:09;31.40;;;15.48;;
67164;SDS011;54093;50.014;19.984;2023-03-01T07:18:30;38.95;;;17.73;;
67164;SDS011;54093;50.014;19.984;2023-03-01T07:27:52;36.33;;;15.10;;
67164;SDS011;54093;50.014;19.984;2023-03-01T07:37:13;46.58;;;18.10;;
67164;SDS011;54093;50.014;19.984;2023-03-01T07:46:34;55.75;;;23.98;;
67164;SDS011;54093;50.014;19.984;2023-03-01T07:56:09;50.65;;;24.00;;
67164;SDS011;54093;50.014;19.984;2023-03-01T08:05:31;41.05;;;17.83;;
67164;SDS011;54093;50.014;19.984;2023-03-01T08:14:52;41.25;;;18.27;;
67164;SDS011;54093;50.014;19.984;2023-03-01T08:24:13;46.35;;;22.80;;
67164;SDS011;54093;50.014;19.984;2023-03-01T08:33:34;53.47;;;22.17;;
67164;SDS011;54093;50.014;19.984;2023-03-01T08:42:55;32.80;;;17.40;;
67164;SDS011;54093;50.014;19.984;2023-03-01T08:52:16;24.27;;;14.60;;
67164;SDS011;54093;50.014;19.984;2023-03-01T09:01:37;23.83;;;14.23;;
67164;SDS011;54093;50.014;19.984;2023-03-01T09:11:00;37.08;;;19.13;;
67164;SDS011;54093;50.014;19.984;2023-03-01T09:20:22;27.05;;;13.65;;
67164;SDS011;54093;50.014;19.984;2023-03-01T09:29:43;17.38;;;12.00;;
67164;SDS011;54093;50.014;19.984;2023-03-01T09:39:05;20.50;;;11.98;;
67164;SDS011;54093;50.014;19.984;2023-03-01T09:48:30;20.65;;;10.02;;
67164;SDS011;54093;50.014;19.984;2023-03-01T10:26:56;17.45;;;9.90;;
67164;SDS011;54093;50.014;19.984;2023-03-01T10:36:19;21.50;;;10.82;;
67164;SDS011;54093;50.014;19.984;2023-03-01T10:45:40;18.10;;;10.35;;
67164;SDS011;54093;50.014;19.984;2023-03-01T11:04:55;15.25;;;9.77;;
67164;SDS011;54093;50.014;19.984;2023-03-01T11:14:37;22.25;;;12.48;;
67164;SDS011;54093;50.014;19.984;2023-03-01T11:24:08;25.35;;;12.82;;
67164;SDS011;54093;50.014;19.984;2023-03-01T11:33:49;23.10;;;12.35;;
67164;SDS011;54093;50.014;19.984;2023-03-01T12:12:58;25.77;;;10.45;;
67164;SDS011;54093;50.014;19.984;2023-03-01T12:22:44;19.90;;;11.02;;
67164;SDS011;54093;50.014;19.984;2023-03-01T12:42:34;25.02;;;11.75;;
67164;SDS011;54093;50.014;19.984;2023-03-01T12:52:08;16.35;;;9.65;;
67164;SDS011;54093;50.014;19.984;2023-03-01T13:11:18;15.57;;;10.20;;
67164;SDS011;54093;50.014;19.984;2023-03-01T13:30:02;16.73;;;8.40;;
67164;SDS011;54093;50.014;19.984;2023-03-01T13:39:29;17.77;;;9.33;;
67164;SDS011;54093;50.014;19.984;2023-03-01T13:48:55;19.00;;;8.25;;
67164;SDS011;54093;50.014;19.984;2023-03-01T13:58:24;11.40;;;7.95;;
67164;SDS011;54093;50.014;19.984;2023-03-01T14:26:48;8.00;;;6.35;;
67164;SDS011;54093;50.014;19.984;2023-03-01T14:36:12;12.40;;;6.68;;
67164;SDS011;54093;50.014;19.984;2023-03-01T14:45:35;6.90;;;5.93;;
67164;SDS011;54093;50.014;19.984;2023-03-01T14:54:56;8.43;;;6.70;;
67164;SDS011;54093;50.014;19.984;2023-03-01T15:04:17;7.75;;;6.22;;
67164;SDS011;54093;50.014;19.984;2023-03-01T15:13:39;8.93;;;6.07;;
67164;SDS011;54093;50.014;19.984;2023-03-01T15:23:02;7.80;;;5.78;;
67164;SDS011;54093;50.014;19.984;2023-03-01T15:41:52;7.60;;;6.72;;
67164;SDS011;54093;50.014;19.984;2023-03-01T15:51:13;12.65;;;7.38;;
67164;SDS011;54093;50.014;19.984;2023-03-01T16:00:35;13.20;;;8.75;;
67164;SDS011;54093;50.014;19.984;2023-03-01T16:09:56;11.65;;;6.82;;
67164;SDS011;54093;50.014;19.984;2023-03-01T16:19:18;8.43;;;7.32;;
67164;SDS011;54093;50.014;19.984;2023-03-01T16:28:42;11.02;;;7.00;;
67164;SDS011;54093;50.014;19.984;2023-03-01T16:38:04;10.10;;;7.32;;
67164;SDS011;54093;50.014;19.984;2023-03-01T16:47:25;8.95;;;7.45;;
67164;SDS011;54093;50.014;19.984;2023-03-01T16:56:46;18.35;;;8.30;;
67164;SDS011;54093;50.014;19.984;2023-03-01T17:06:09;16.35;;;7.63;;
67164;SDS011;54093;50.014;19.984;2023-03-01T17:15:32;10.90;;;7.32;;
67164;SDS011;54093;50.014;19.984;2023-03-01T17:24:53;13.30;;;7.63;;
67164;SDS011;54093;50.014;19.984;2023-03-01T17:34:14;13.43;;;6.85;;
67164;SDS011;54093;50.014;19.984;2023-03-01T17:43:36;18.60;;;8.43;;
67164;SDS011;54093;50.014;19.984;2023-03-01T17:52:57;13.82;;;7.07;;
67164;SDS011;54093;50.014;19.984;2023-03-01T18:02:18;12.43;;;6.80;;
67164;SDS011;54093;50.014;19.984;2023-03-01T18:11:40;10.57;;;6.35;;
67164;SDS011;54093;50.014;19.984;2023-03-01T18:21:02;8.95;;;6.97;;
67164;SDS011;54093;50.014;19.984;2023-03-01T18:30:25;12.40;;;8.70;;
67164;SDS011;54093;50.014;19.984;2023-03-01T18:39:49;15.70;;;9.60;;
67164;SDS011;54093;50.014;19.984;2023-03-01T18:49:12;23.27;;;12.80;;
67164;SDS011;54093;50.014;19.984;2023-03-01T18:58:34;25.20;;;11.77;;
67164;SDS011;54093;50.014;19.984;2023-03-01T19:07:56;17.83;;;11.50;;
67164;SDS011;54093;50.014;19.984;2023-03-01T19:17:20;39.15;;;15.45;;
67164;SDS011;54093;50.014;19.984;2023-03-01T19:26:42;18.98;;;10.48;;
67164;SDS011;54093;50.014;19.984;2023-03-01T19:36:03;17.67;;;10.20;;
67164;SDS011;54093;50.014;19.984;2023-03-01T19:45:24;22.45;;;11.32;;
67164;SDS011;54093;50.014;19.984;2023-03-01T19:54:46;18.42;;;11.20;;
67164;SDS011;54093;50.014;19.984;2023-03-01T20:04:08;24.30;;;12.07;;
67164;SDS011;54093;50.014;19.984;2023-03-01T20:13:30;40.08;;;14.63;;
67164;SDS011;54093;50.014;19.984;2023-03-01T20:22:51;20.88;;;8.90;;
67164;SDS011;54093;50.014;19.984;2023-03-01T20:32:12;13.60;;;9.60;;
67164;SDS011;54093;50.014;19.984;2023-03-01T20:41:33;17.95;;;11.70;;
67164;SDS011;54093;50.014;19.984;2023-03-01T20:50:54;11.65;;;7.97;;
67164;SDS011;54093;50.014;19.984;2023-03-01T21:00:16;9.73;;;7.88;;
67164;SDS011;54093;50.014;19.984;2023-03-01T21:09:37;14.57;;;8.07;;
67164;SDS011;54093;50.014;19.984;2023-03-01T21:18:59;28.17;;;8.55;;
67164;SDS011;54093;50.014;19.984;2023-03-01T21:28:26;15.45;;;10.10;;
67164;SDS011;54093;50.014;19.984;2023-03-01T21:37:51;15.45;;;9.27;;
67164;SDS011;54093;50.014;19.984;2023-03-01T21:47:13;23.33;;;10.35;;
67164;SDS011;54093;50.014;19.984;2023-03-01T21:56:34;21.65;;;9.40;;
67164;SDS011;54093;50.014;19.984;2023-03-01T22:06:00;16.67;;;9.98;;
67164;SDS011;54093;50.014;19.984;2023-03-01T22:15:22;21.30;;;11.45;;
67164;SDS011;54093;50.014;19.984;2023-03-01T22:24:44;35.40;;;12.27;;
67164;SDS011;54093;50.014;19.984;2023-03-01T22:34:05;17.88;;;9.63;;
67164;SDS011;54093;50.014;19.984;2023-03-01T22:43:27;27.10;;;14.57;;
67164;SDS011;54093;50.014;19.984;2023-03-01T22:52:49;18.38;;;8.77;;
67164;SDS011;54093;50.014;19.984;2023-03-01T23:02:11;15.15;;;8.65;;
67164;SDS011;54093;50.014;19.984;2023-03-01T23:11:32;18.85;;;11.23;;
67164;SDS011;54093;50.014;19.984;2023-03-01T23:20:53;21.55;;;12.55;;
67164;SDS011;54093;50.014;19.984;2023-03-01T23:30:14;17.48;;;9.07;;
67164;SDS011;54093;50.014;19.984;2023-03-01T23:39:35;16.15;;;7.97;;
67164;SDS011;54093;50.014;19.984;2023-03-01T23:48:58;18.98;;;10.60;;
67164;SDS011;54093;50.014;19.984;2023-03-01T23:58:19;14.88;;;9.15;;
